Nur fliegen ist schöner ....

Willkommen beim Flugservice Bautzen GmbH

Wir sind eine nach europäischen Richtlinien zugelassene Flugschule und lizenziertes Luftfahrtunternehmen. Bei uns können sie nicht nur Rundflüge über die Oberlausitz oder Sachsen buchen, sondern in unserer Flugschule selber das Fliegen erlernen. Erfahrene Fluglehrer stehen ihnen dabei zur Seite.

Wir bieten Ihnen außerdem spezielle Flüge zur Vermessung oder Fotoflüge für Luftbildaufnahmen an. In Zusammenarbeit mit dem Fallschirmsportclub Dresden und dem Cottbuser Fallschirmsportclub setzen wir am Flugplatz Bautzen und Neuhausen Fallschirmspringer ab.
Schauen sie sich in Ruhe bei uns um und wenn sie Fragen haben oder weitere Informationen benötigen, scheuen sie sich nicht Kontakt mit uns aufzunehmen.

Rundflüge können sie ganz leicht auch online in unserem Shop buchen.

Terminkalender

Letzter Monat Oktober 2018 Nächster Monat
Mo Di Mi Do Fr Sa So
week 40 1 2 3 4 5 6 7
week 41 8 9 10 11 12 13 14
week 42 15 16 17 18 19 20 21
week 43 22 23 24 25 26 27 28
week 44 29 30 31

Flugwetterinfo

[Quelle: ADDS]
METAR
EDDC 151850Z 14008KT CAVOK 18/04 Q1017 NOSIG =
EDDC 151700Z 1518/1618 15007KT CAVOK BECMG 1609/1611 21004KT
TAF
EDDC 151700Z 1518/1618 15007KT CAVOK BECMG 1609/1611 21004KT =
SR / SS: 05:26 / 16:09 UTC (EDAB Flugplatz Bautzen 2018-10-15)

Webcam EDAB

Webcam EDAB
Flugservice Bautzen GmbH, Kornmarkt 34, 02625 Bautzen  Telefon: +49 (3591) 211105, Telefax: +49 (3591) 274512, E-Mail:  flugservice(at)fsbautzen.de